createdAt,value
2023-11-03T00:02:37.875Z,93229.66
2023-11-03T00:05:24.220Z,93155.00
2023-11-03T00:08:12.163Z,93132.13
2023-11-03T00:10:54.682Z,93194.25
2023-11-03T00:13:52.838Z,93259.94
2023-11-03T00:16:58.076Z,93181.16
2023-11-03T00:19:41.663Z,93231.38
2023-11-03T00:22:27.713Z,93166.06
2023-11-03T00:25:12.976Z,93158.53
2023-11-03T00:27:56.895Z,93217.84
2023-11-03T00:30:40.318Z,93143.16
2023-11-03T00:36:50.603Z,93149.09
2023-11-03T00:39:31.564Z,93145.31
2023-11-03T00:42:16.413Z,93244.75
2023-11-03T00:45:04.209Z,93173.41
2023-11-03T00:47:46.733Z,93167.78
2023-11-03T00:50:40.016Z,93184.59
2023-11-03T00:53:22.016Z,93235.00
2023-11-03T00:56:06.561Z,93179.81
2023-11-03T00:59:23.966Z,93170.19
2023-11-03T01:02:06.423Z,93121.16
2023-11-03T01:04:50.591Z,93107.16
2023-11-03T01:07:33.652Z,93116.06
2023-11-03T01:10:18.907Z,93237.53
2023-11-03T01:13:00.812Z,93193.94
2023-11-03T01:15:44.306Z,93180.69
2023-11-03T01:18:28.517Z,93162.38
2023-11-03T01:24:38.344Z,93277.78
2023-11-03T01:27:18.510Z,93139.31
2023-11-03T01:30:01.630Z,93209.91
2023-11-03T01:32:52.371Z,93150.59
2023-11-03T01:35:34.192Z,93165.91
2023-11-03T01:38:15.900Z,93154.31
2023-11-03T01:40:56.461Z,93190.16
2023-11-03T01:43:41.810Z,93147.78
2023-11-03T01:46:53.743Z,93207.44
2023-11-03T01:50:12.243Z,93175.19
2023-11-03T01:52:56.113Z,93161.78
2023-11-03T01:55:41.942Z,93161.78
2023-11-03T01:58:25.671Z,93105.88
2023-11-03T02:01:13.580Z,93196.66
2023-11-03T02:04:11.899Z,93229.31
2023-11-03T02:10:11.575Z,93243.88
2023-11-03T02:12:51.752Z,93164.28
2023-11-03T02:15:35.520Z,93097.41
2023-11-03T02:18:24.591Z,93112.75
2023-11-03T02:21:36.196Z,93147.53
2023-11-03T02:27:48.760Z,93163.53
2023-11-03T02:30:34.558Z,93136.47
2023-11-03T02:33:17.841Z,93060.16
2023-11-03T02:35:59.872Z,93074.44
2023-11-03T02:38:43.392Z,93083.09
2023-11-03T02:41:46.021Z,93178.78
2023-11-03T02:44:47.826Z,93181.44
2023-11-03T02:47:53.628Z,93174.44
2023-11-03T02:50:37.226Z,93091.53
2023-11-03T02:53:39.893Z,93156.38
2023-11-03T02:56:34.652Z,93155.22
2023-11-03T02:59:23.293Z,93155.47
2023-11-03T03:05:22.832Z,93198.72
2023-11-03T03:08:06.711Z,93088.78
2023-11-03T03:13:51.964Z,93208.06
2023-11-03T03:16:37.321Z,93199.25
2023-11-03T03:19:23.179Z,93143.91
2023-11-03T03:22:06.407Z,93089.25
2023-11-03T03:24:50.834Z,93198.53
2023-11-03T03:30:39.057Z,93084.59
2023-11-03T03:36:24.671Z,93208.13
2023-11-03T03:39:06.109Z,93214.28
2023-11-03T03:41:50.143Z,93123.94
2023-11-03T03:51:15.404Z,93183.06
2023-11-03T03:53:54.440Z,93171.84
2023-11-03T03:56:41.833Z,93183.53
2023-11-03T03:59:23.504Z,93054.94
2023-11-03T04:02:12.042Z,93118.38
2023-11-03T04:05:20.646Z,93178.59
2023-11-03T04:08:24.501Z,93176.31
2023-11-03T04:11:16.093Z,93103.75
2023-11-03T04:13:58.547Z,93119.56
2023-11-03T04:16:49.751Z,93064.84
2023-11-03T04:19:31.419Z,93173.31
2023-11-03T04:22:21.712Z,93168.03
2023-11-03T04:25:13.616Z,93165.59
2023-11-03T04:27:53.877Z,93157.78
2023-11-03T04:33:54.509Z,93030.66
2023-11-03T04:36:39.814Z,93124.16
2023-11-03T04:39:22.442Z,93072.66
2023-11-03T04:42:06.073Z,93115.81
2023-11-03T04:44:54.832Z,93087.19
2023-11-03T04:47:34.880Z,93049.22
2023-11-03T04:50:21.963Z,93043.50
2023-11-03T04:53:15.606Z,93057.16
2023-11-03T04:56:19.234Z,93182.16
2023-11-03T04:59:01.675Z,93107.06
2023-11-03T05:01:44.775Z,93145.38
2023-11-03T05:04:30.092Z,93100.44
2023-11-03T05:07:17.191Z,93107.34
2023-11-03T05:10:01.052Z,93056.13
2023-11-03T05:12:41.806Z,93100.06
2023-11-03T05:15:28.551Z,93058.19
2023-11-03T05:18:29.138Z,93188.25
2023-11-03T05:21:18.261Z,93185.91
2023-11-03T05:23:53.055Z,93068.78
2023-11-03T05:26:38.741Z,93068.22
2023-11-03T05:29:28.110Z,93107.03
2023-11-03T05:32:13.271Z,93130.56
2023-11-03T05:34:56.901Z,93099.84
2023-11-03T05:37:43.647Z,93148.13
2023-11-03T05:40:28.555Z,93100.56
2023-11-03T05:43:12.048Z,93154.69
2023-11-03T05:46:22.951Z,93148.94
2023-11-03T05:49:01.908Z,93100.84
2023-11-03T05:51:32.483Z,93085.22
2023-11-03T05:54:14.585Z,93126.59
2023-11-03T05:56:56.604Z,93155.59
2023-11-03T05:59:38.121Z,93087.47
2023-11-03T06:02:25.248Z,93211.13
2023-11-03T06:05:08.751Z,93146.53
2023-11-03T06:07:54.053Z,93137.66
2023-11-03T06:10:38.550Z,93062.69
2023-11-03T06:13:29.478Z,93135.63
2023-11-03T06:16:24.615Z,93200.41
2023-11-03T06:19:12.362Z,93206.00
2023-11-03T06:21:54.272Z,93186.47
2023-11-03T06:24:35.703Z,93115.41
2023-11-03T06:27:19.800Z,93091.78
2023-11-03T06:30:07.106Z,93143.81
2023-11-03T06:32:50.703Z,93116.16
2023-11-03T06:35:36.725Z,93152.00
2023-11-03T06:41:33.512Z,93069.34
2023-11-03T06:44:32.069Z,93187.97
2023-11-03T06:47:16.131Z,93087.31
2023-11-03T06:54:14.996Z,93125.56
2023-11-03T06:57:16.420Z,93227.94
2023-11-03T07:00:03.078Z,93115.16
2023-11-03T07:02:49.059Z,93171.47
2023-11-03T07:05:35.290Z,93223.63
2023-11-03T07:11:34.713Z,93131.94
2023-11-03T07:14:34.443Z,93274.38
2023-11-03T07:17:22.986Z,93185.50
2023-11-03T07:20:05.533Z,93229.94
2023-11-03T07:22:48.125Z,93083.38
2023-11-03T07:25:34.002Z,93037.38
2023-11-03T07:28:16.498Z,93124.25
2023-11-03T07:34:09.598Z,93179.59
2023-11-03T07:37:22.066Z,93218.78
2023-11-03T07:40:14.091Z,93132.56
2023-11-03T07:42:55.284Z,93070.09
2023-11-03T07:45:37.760Z,93063.56
2023-11-03T07:48:20.179Z,93051.72
2023-11-03T07:51:24.369Z,93154.38
2023-11-03T07:54:04.140Z,93073.09
2023-11-03T07:56:55.921Z,93060.81
2023-11-03T08:00:05.162Z,92998.44
2023-11-03T08:02:55.321Z,93136.16
2023-11-03T08:05:38.166Z,93219.34
2023-11-03T08:08:30.620Z,93143.84
2023-11-03T08:14:25.728Z,93078.53
2023-11-03T08:17:45.604Z,93135.28
2023-11-03T08:20:32.643Z,93130.84
2023-11-03T08:23:14.711Z,93135.56
2023-11-03T08:25:59.821Z,93197.50
2023-11-03T08:29:08.934Z,93086.47
2023-11-03T08:35:15.631Z,93124.50
2023-11-03T08:38:00.651Z,93052.72
2023-11-03T08:40:46.710Z,93099.06
2023-11-03T08:43:46.943Z,93132.56
2023-11-03T08:46:46.444Z,93092.13
2023-11-03T08:49:33.920Z,93265.59
2023-11-03T08:55:24.860Z,93119.06
2023-11-03T08:58:18.225Z,93244.72
2023-11-03T09:01:34.281Z,93190.28
2023-11-03T09:04:31.629Z,93262.28
2023-11-03T09:07:20.494Z,93208.94
2023-11-03T09:10:37.590Z,93293.78
2023-11-03T09:13:19.889Z,93213.72
2023-11-03T09:16:22.682Z,93277.03
2023-11-03T09:19:23.626Z,93311.31
2023-11-03T09:22:09.182Z,93252.91
2023-11-03T09:24:57.897Z,93180.09
2023-11-03T09:28:05.028Z,93113.56
2023-11-03T09:30:37.363Z,93194.59
2023-11-03T09:33:20.307Z,93283.34
2023-11-03T09:36:06.298Z,93138.38
2023-11-03T09:39:20.176Z,93262.31
2023-11-03T09:42:14.924Z,93195.97
2023-11-03T09:44:56.622Z,93282.09
2023-11-03T09:47:48.318Z,93149.50
2023-11-03T09:50:47.571Z,93264.78
2023-11-03T09:56:31.997Z,93255.56
2023-11-03T09:58:59.452Z,93271.75
2023-11-03T10:01:27.253Z,93267.97
2023-11-03T10:03:55.691Z,93252.97
2023-11-03T10:06:25.097Z,93265.63
2023-11-03T10:08:53.330Z,93193.22
2023-11-03T10:11:20.635Z,93255.84
2023-11-03T10:13:48.179Z,93300.16
2023-11-03T10:16:15.514Z,93249.59
2023-11-03T10:18:43.365Z,93287.84
2023-11-03T10:21:11.189Z,93233.09
2023-11-03T10:23:39.064Z,93291.44
2023-11-03T10:26:07.645Z,93293.31
2023-11-03T10:28:35.884Z,93286.47
2023-11-03T10:31:06.039Z,93266.06
2023-11-03T10:33:33.449Z,93263.91
2023-11-03T10:36:02.342Z,93188.38
2023-11-03T10:38:29.683Z,93203.84
2023-11-03T10:41:02.087Z,93307.19
2023-11-03T10:43:30.781Z,93257.47
2023-11-03T10:46:06.979Z,93320.66
2023-11-03T10:49:21.592Z,93340.13
2023-11-03T10:51:58.101Z,93346.22
2023-11-03T10:54:47.284Z,93339.91
2023-11-03T10:57:37.287Z,93268.16
2023-11-03T11:00:35.855Z,93337.00
2023-11-03T11:03:16.582Z,93200.78
2023-11-03T11:06:22.037Z,93336.72
2023-11-03T11:08:55.515Z,93251.09
2023-11-03T11:11:26.693Z,93212.00
2023-11-03T11:13:54.247Z,93204.84
2023-11-03T11:16:21.815Z,93283.31
2023-11-03T11:18:58.398Z,93235.34
2023-11-03T11:21:36.389Z,93221.09
2023-11-03T11:24:04.112Z,93215.94
2023-11-03T11:26:35.993Z,93237.63
2023-11-03T11:29:05.199Z,93234.31
2023-11-03T11:31:35.079Z,93314.69
2023-11-03T11:34:22.415Z,93279.00
2023-11-03T11:36:52.654Z,93158.03
2023-11-03T11:39:24.471Z,93294.88
2023-11-03T11:42:01.925Z,93177.78
2023-11-03T11:44:32.207Z,93193.81
2023-11-03T11:47:02.241Z,93178.50
2023-11-03T11:49:33.237Z,93181.06
2023-11-03T11:52:03.282Z,93191.28
2023-11-03T11:54:30.642Z,93214.97
2023-11-03T11:56:58.490Z,93167.66
2023-11-03T11:59:26.591Z,93262.63
2023-11-03T12:01:54.873Z,93240.09
2023-11-03T12:04:25.373Z,93280.69
2023-11-03T12:06:53.621Z,93204.53
2023-11-03T12:09:21.221Z,93135.38
2023-11-03T12:11:48.522Z,93226.25
2023-11-03T12:14:15.877Z,93215.38
2023-11-03T12:16:43.439Z,93198.78
2023-11-03T12:19:15.396Z,93321.91
2023-11-03T12:21:45.519Z,93256.50
2023-11-03T12:24:14.689Z,93191.88
2023-11-03T12:26:42.378Z,93262.88
2023-11-03T12:29:30.750Z,93249.00
2023-11-03T12:32:03.126Z,93254.56
2023-11-03T12:34:31.511Z,93261.66
2023-11-03T12:37:00.572Z,93256.38
2023-11-03T12:39:29.810Z,93249.69
2023-11-03T12:42:15.507Z,93259.41
2023-11-03T12:45:07.082Z,93254.81
2023-11-03T12:47:52.198Z,93224.44
2023-11-03T12:50:27.119Z,93200.44
2023-11-03T12:52:57.562Z,93337.13
2023-11-03T12:55:27.685Z,93263.13
2023-11-03T12:57:57.507Z,93163.66
2023-11-03T13:00:38.229Z,93301.81
2023-11-03T13:03:05.780Z,93285.72
2023-11-03T13:05:34.665Z,93229.34
2023-11-03T13:08:04.515Z,93230.44
2023-11-03T13:10:33.116Z,93261.28
2023-11-03T13:13:01.931Z,93251.09
2023-11-03T13:15:30.540Z,93248.84
2023-11-03T13:17:58.091Z,93287.50
2023-11-03T13:20:25.873Z,93335.19
2023-11-03T13:23:00.575Z,93311.09
2023-11-03T13:25:30.226Z,93262.59
2023-11-03T13:27:58.419Z,93256.94
2023-11-03T13:30:26.254Z,93297.59
2023-11-03T13:32:54.030Z,93290.78
2023-11-03T13:35:23.049Z,93311.81
2023-11-03T13:37:50.696Z,93353.97
2023-11-03T13:40:19.454Z,93401.84
2023-11-03T13:42:46.927Z,93280.47
2023-11-03T13:45:15.006Z,93269.63
2023-11-03T13:47:42.908Z,93292.16
2023-11-03T13:50:20.538Z,93341.25
2023-11-03T13:52:50.081Z,93297.28
2023-11-03T13:55:18.622Z,93256.72
2023-11-03T13:57:46.403Z,93274.78
2023-11-03T14:00:15.532Z,93287.84
2023-11-03T14:02:42.992Z,93267.28
2023-11-03T14:05:13.081Z,93295.53
2023-11-03T14:07:43.635Z,93265.03
2023-11-03T14:10:15.869Z,93297.66
2023-11-03T14:12:45.365Z,93316.88
2023-11-03T14:15:14.389Z,93358.91
2023-11-03T14:17:43.665Z,93323.56
2023-11-03T14:20:12.248Z,93417.53
2023-11-03T14:22:43.184Z,93203.31
2023-11-03T14:25:13.971Z,93275.81
2023-11-03T14:27:43.268Z,93313.84
2023-11-03T14:30:13.936Z,93175.97
2023-11-03T14:32:42.140Z,93310.28
2023-11-03T14:35:13.917Z,93416.59
2023-11-03T14:37:42.845Z,93323.56
2023-11-03T14:40:14.428Z,93376.47
2023-11-03T14:42:44.605Z,93308.41
2023-11-03T14:45:12.584Z,93349.31
2023-11-03T14:47:40.122Z,93383.94
2023-11-03T14:50:08.129Z,93331.75
2023-11-03T14:52:35.793Z,93338.47
2023-11-03T14:55:07.721Z,93316.69
2023-11-03T14:57:37.916Z,93318.59
2023-11-03T15:00:06.385Z,93233.91
2023-11-03T15:02:34.057Z,93402.38
2023-11-03T15:05:02.491Z,93408.84
2023-11-03T15:07:31.639Z,93324.94
2023-11-03T15:09:59.142Z,93326.06
2023-11-03T15:12:26.670Z,93317.72
2023-11-03T15:14:54.933Z,93331.63
2023-11-03T15:17:22.829Z,93300.38
2023-11-03T15:19:50.333Z,93317.63
2023-11-03T15:22:17.868Z,93318.28
2023-11-03T15:24:45.472Z,93359.94
2023-11-03T15:27:13.218Z,93422.88
2023-11-03T15:29:40.992Z,93428.44
2023-11-03T15:32:08.549Z,93338.06
2023-11-03T15:34:36.347Z,93359.94
2023-11-03T15:37:04.912Z,93304.22
2023-11-03T15:39:35.855Z,93369.97
2023-11-03T15:42:05.839Z,93397.13
2023-11-03T15:44:33.303Z,93357.94
2023-11-03T15:47:00.803Z,93312.38
2023-11-03T15:49:31.123Z,93324.78
2023-11-03T15:51:59.799Z,93382.63
2023-11-03T15:54:28.139Z,93376.66
2023-11-03T15:56:57.274Z,93382.16
2023-11-03T15:59:24.808Z,93337.28
2023-11-03T16:01:52.060Z,93374.09
2023-11-03T16:04:25.235Z,93378.97
2023-11-03T16:06:52.710Z,93333.47
2023-11-03T16:09:21.783Z,93355.22
2023-11-03T16:11:49.331Z,93453.78
2023-11-03T16:14:16.606Z,93400.41
2023-11-03T16:16:44.043Z,93317.88
2023-11-03T16:19:14.422Z,93333.34
2023-11-03T16:21:42.199Z,93309.31
2023-11-03T16:24:12.742Z,93509.84
2023-11-03T16:26:41.899Z,93448.06
2023-11-03T16:29:09.264Z,93317.03
2023-11-03T16:31:36.655Z,93298.97
2023-11-03T16:34:04.176Z,93341.03
2023-11-03T16:36:37.477Z,93453.22
2023-11-03T16:39:05.513Z,93268.06
2023-11-03T16:41:33.378Z,93314.22
2023-11-03T16:44:00.697Z,93340.56
2023-11-03T16:46:28.072Z,93391.72
2023-11-03T16:48:55.562Z,93341.22
2023-11-03T16:51:22.893Z,93397.69
2023-11-03T16:53:51.621Z,93431.66
2023-11-03T16:56:19.179Z,93468.88
2023-11-03T16:58:46.562Z,93328.94
2023-11-03T17:01:14.574Z,93423.19
2023-11-03T17:03:42.340Z,93438.56
2023-11-03T17:06:09.891Z,93438.31
2023-11-03T17:08:38.795Z,93432.88
2023-11-03T17:11:07.377Z,93412.19
2023-11-03T17:13:36.617Z,93366.94
2023-11-03T17:16:04.152Z,93558.31
2023-11-03T17:18:31.600Z,93358.75
2023-11-03T17:21:01.264Z,93368.44
2023-11-03T17:23:28.566Z,93372.91
2023-11-03T17:25:55.986Z,93421.81
2023-11-03T17:28:25.245Z,93376.56
2023-11-03T17:30:52.660Z,93429.94
2023-11-03T17:33:20.077Z,93482.59
2023-11-03T17:35:47.529Z,93388.16
2023-11-03T17:38:14.825Z,93421.59
2023-11-03T17:40:43.589Z,93351.63
2023-11-03T17:43:11.026Z,93448.44
2023-11-03T17:45:38.467Z,93477.03
2023-11-03T17:48:05.967Z,93517.47
2023-11-03T17:50:33.495Z,93468.22
2023-11-03T17:53:00.987Z,93502.91
2023-11-03T17:55:28.355Z,93473.06
2023-11-03T17:57:56.501Z,93597.41
2023-11-03T18:00:26.478Z,93531.69
2023-11-03T18:02:55.140Z,93529.13
2023-11-03T18:05:25.050Z,93529.81
2023-11-03T18:07:52.730Z,93613.06
2023-11-03T18:10:21.413Z,93504.09
2023-11-03T18:12:51.707Z,93493.25
2023-11-03T18:15:22.481Z,93608.28
2023-11-03T18:17:50.192Z,93546.38
2023-11-03T18:20:19.370Z,93549.25
2023-11-03T18:22:49.972Z,93602.91
2023-11-03T18:25:20.966Z,93613.84
2023-11-03T18:27:49.413Z,93450.44
2023-11-03T18:30:17.170Z,93468.94
2023-11-03T18:32:46.094Z,93531.53
2023-11-03T18:35:13.697Z,93500.16
2023-11-03T18:37:43.123Z,93520.47
2023-11-03T18:40:15.513Z,93484.63
2023-11-03T18:42:43.580Z,93460.63
2023-11-03T18:45:12.781Z,93556.31
2023-11-03T18:47:40.463Z,93585.22
2023-11-03T18:52:39.896Z,93344.84
2023-11-03T18:56:05.078Z,93499.66
2023-11-03T19:02:07.069Z,93526.03
2023-11-03T19:04:42.091Z,93587.44
2023-11-03T19:07:29.257Z,93582.13
2023-11-03T19:08:52.511Z,93592.66
2023-11-03T19:11:20.042Z,93596.06
2023-11-03T19:13:48.378Z,93565.44
2023-11-03T19:16:15.921Z,93564.59
2023-11-03T19:18:43.615Z,93510.75
2023-11-03T19:21:10.994Z,93647.38
2023-11-03T19:23:39.095Z,93549.31
2023-11-03T19:26:06.473Z,93588.38
2023-11-03T19:28:36.705Z,93591.81
2023-11-03T19:31:05.611Z,93624.28
2023-11-03T19:33:33.530Z,93543.63
2023-11-03T19:36:01.628Z,93636.19
2023-11-03T19:38:29.664Z,93573.50
2023-11-03T19:40:57.079Z,93618.06
2023-11-03T19:43:24.456Z,93514.69
2023-11-03T19:45:52.091Z,93536.84
2023-11-03T19:48:21.115Z,93597.88
2023-11-03T19:50:48.490Z,93619.41
2023-11-03T19:53:17.755Z,93663.13
2023-11-03T19:55:46.103Z,93707.97
2023-11-03T19:58:14.324Z,93610.16
2023-11-03T20:00:44.402Z,93695.38
2023-11-03T20:03:11.873Z,93601.78
2023-11-03T20:05:39.950Z,93599.13
2023-11-03T20:08:10.805Z,93607.34
2023-11-03T20:10:38.638Z,93661.56
2023-11-03T20:13:06.899Z,93680.63
2023-11-03T20:15:37.371Z,93606.56
2023-11-03T20:18:06.329Z,93524.53
2023-11-03T20:20:34.869Z,93655.25
2023-11-03T20:23:02.321Z,93620.56
2023-11-03T20:25:29.610Z,93609.59
2023-11-03T20:27:56.986Z,93673.25
2023-11-03T20:30:24.342Z,93662.59
2023-11-03T20:32:52.910Z,93745.84
2023-11-03T20:35:20.330Z,93622.75
2023-11-03T20:37:47.861Z,93648.22
2023-11-03T20:40:15.465Z,93528.63
2023-11-03T20:42:43.023Z,93671.50
2023-11-03T20:45:12.176Z,93551.50
2023-11-03T20:47:40.052Z,93683.25
2023-11-03T20:50:10.527Z,93749.66
2023-11-03T20:52:38.182Z,93694.28
2023-11-03T20:55:07.103Z,93675.28
2023-11-03T20:57:34.524Z,93667.16
2023-11-03T21:00:02.410Z,93788.13
2023-11-03T21:02:30.742Z,93630.25
2023-11-03T21:04:58.288Z,93717.34
2023-11-03T21:07:25.960Z,93670.34
2023-11-03T21:09:53.440Z,93740.34
2023-11-03T21:12:20.782Z,93727.50
2023-11-03T21:14:48.347Z,93678.72
2023-11-03T21:17:17.110Z,93688.75
2023-11-03T21:19:44.512Z,93658.81
2023-11-03T21:22:11.947Z,93720.25
2023-11-03T21:24:41.721Z,93669.78
2023-11-03T21:27:09.408Z,93733.59
2023-11-03T21:29:37.625Z,93650.22
2023-11-03T21:32:05.365Z,93646.09
2023-11-03T21:34:32.824Z,93595.75
2023-11-03T21:37:00.226Z,93660.31
2023-11-03T21:39:29.444Z,93744.13
2023-11-03T21:41:56.805Z,93674.66
2023-11-03T21:44:25.873Z,93655.94
2023-11-03T21:46:53.310Z,93697.06
2023-11-03T21:49:20.663Z,93706.59
2023-11-03T21:51:50.340Z,93685.50
2023-11-03T21:54:19.670Z,93698.78
2023-11-03T21:56:47.504Z,93694.94
2023-11-03T21:59:14.948Z,93734.84
2023-11-03T22:01:42.362Z,93729.75
2023-11-03T22:04:09.775Z,93762.47
2023-11-03T22:06:37.233Z,93705.91
2023-11-03T22:09:09.677Z,93705.69
2023-11-03T22:11:38.270Z,93714.28
2023-11-03T22:14:05.683Z,93706.13
2023-11-03T22:16:33.442Z,93695.13
2023-11-03T22:19:01.315Z,93729.16
2023-11-03T22:21:28.958Z,93743.72
2023-11-03T22:23:56.262Z,93668.88
2023-11-03T22:26:32.600Z,93759.44
2023-11-03T22:29:04.890Z,93712.13
2023-11-03T22:31:32.297Z,93717.97
2023-11-03T22:34:00.099Z,93714.91
2023-11-03T22:36:28.299Z,93724.78
2023-11-03T22:38:55.665Z,93739.00
2023-11-03T22:41:24.395Z,93745.19
2023-11-03T22:43:51.892Z,93744.38
2023-11-03T22:46:19.636Z,93775.78
2023-11-03T22:48:47.207Z,93690.97
2023-11-03T22:51:18.468Z,93697.84
2023-11-03T22:53:48.127Z,93718.41
2023-11-03T22:56:23.782Z,93773.09
2023-11-03T22:58:54.517Z,93817.50
2023-11-03T23:01:21.972Z,93673.34
2023-11-03T23:03:49.317Z,93731.59
2023-11-03T23:06:19.630Z,93721.38
2023-11-03T23:08:48.811Z,93827.00
2023-11-03T23:11:18.935Z,93723.59
2023-11-03T23:13:46.518Z,93739.50
2023-11-03T23:16:13.988Z,93716.31
2023-11-03T23:18:41.362Z,93725.09
2023-11-03T23:21:12.855Z,93731.75
2023-11-03T23:23:41.725Z,93692.25
2023-11-03T23:26:09.031Z,93765.00
2023-11-03T23:28:36.423Z,93716.97
2023-11-03T23:31:04.110Z,93711.41
2023-11-03T23:33:33.208Z,93777.19
2023-11-03T23:36:00.869Z,93771.78
2023-11-03T23:38:28.585Z,93695.59
2023-11-03T23:40:55.905Z,93710.38
2023-11-03T23:43:23.257Z,93782.56
2023-11-03T23:45:51.987Z,93743.41
2023-11-03T23:48:21.881Z,93764.59
2023-11-03T23:50:49.598Z,93729.38
2023-11-03T23:53:17.295Z,93672.44
2023-11-03T23:55:44.677Z,93784.53
2023-11-03T23:58:12.102Z,93734.44
